Time,TemperatureF,DewpointF,PressureIn,WindDirection,WindDirectionDegrees,WindSpeedMPH,WindSpeedGustMPH,Humidity,HourlyPrecipIn,Conditions,Clouds,dailyrainin,SoftwareType,DateUTC
2013-02-15 00:00:00,37.4,33.6,29.94,WSW,244,0.0,0.0,86,0.00,,SCT250,0.00,VWS V14.01,2013-02-15 05:00:00,
2013-02-15 00:05:00,37.3,33.5,29.94,WSW,243,0.0,0.0,86,0.00,,SCT250,0.00,VWS V14.01,2013-02-15 05:05:00,
2013-02-15 00:10:00,37.1,33.6,29.94,WSW,244,0.0,0.0,87,0.00,,SCT250,0.00,VWS V14.01,2013-02-15 05:10:00,
2013-02-15 00:15:00,37.0,33.5,29.94,WSW,244,0.0,0.0,87,0.00,,SCT250,0.00,VWS V14.01,2013-02-15 05:15:00,
2013-02-15 00:20:00,37.0,33.5,29.94,WSW,244,0.0,0.0,87,0.00,,SCT250,0.00,VWS V14.01,2013-02-15 05:20:00,
2013-02-15 00:25:00,37.1,33.6,29.94,WSW,243,2.0,5.0,87,0.00,,SCT250,0.00,VWS V14.01,2013-02-15 05:25:00,
2013-02-15 00:30:00,37.3,33.8,29.94,WSW,237,0.0,2.0,87,0.00,,SCT250,0.00,VWS V14.01,2013-02-15 05:30:00,
2013-02-15 00:35:00,37.5,33.7,29.94,WSW,237,3.0,4.0,86,0.00,,SCT250,0.00,VWS V14.01,2013-02-15 05:35:00,
2013-02-15 00:40:00,37.5,33.7,29.94,WSW,237,0.0,4.0,86,0.00,,SCT250,0.00,VWS V14.01,2013-02-15 05:40:00,
2013-02-15 00:45:00,37.5,33.7,29.94,SW,236,0.0,4.0,86,0.00,,SCT250,0.00,VWS V14.01,2013-02-15 05:45:00,
2013-02-15 00:50:00,37.6,33.5,29.94,WSW,237,0.0,4.0,85,0.00,,SCT250,0.00,VWS V14.01,2013-02-15 05:50:00,
2013-02-15 00:55:00,37.6,33.8,29.94,SW,236,0.0,4.0,86,0.00,,SCT250,0.00,VWS V14.01,2013-02-15 05:55:00,
2013-02-15 01:00:00,37.5,33.4,29.93,SW,236,0.0,0.0,85,0.00,,SCT250,0.00,VWS V14.01,2013-02-15 06:00:00,
2013-02-15 01:05:00,37.4,33.3,29.93,SW,236,0.0,0.0,85,0.00,,FEW250,0.00,VWS V14.01,2013-02-15 06:05:00,
2013-02-15 01:10:00,37.3,33.2,29.94,WSW,237,0.0,2.0,85,0.00,,FEW250,0.00,VWS V14.01,2013-02-15 06:10:00,
2013-02-15 01:15:00,37.2,33.1,29.94,SW,236,0.0,2.0,85,0.00,,FEW250,0.00,VWS V14.01,2013-02-15 06:15:00,
2013-02-15 01:20:00,37.2,33.1,29.94,SW,236,0.0,2.0,85,0.00,,FEW250,0.00,VWS V14.01,2013-02-15 06:20:00,
2013-02-15 01:25:00,37.1,33.0,29.93,SW,236,0.0,2.0,85,0.00,,FEW250,0.00,VWS V14.01,2013-02-15 06:25:00,
2013-02-15 01:30:00,37.0,32.9,29.94,WSW,237,0.0,0.0,85,0.00,,FEW250,0.00,VWS V14.01,2013-02-15 06:30:00,
2013-02-15 01:35:00,36.9,32.8,29.94,SW,236,0.0,2.0,85,0.00,,FEW250,0.00,VWS V14.01,2013-02-15 06:35:00,
2013-02-15 01:40:00,36.8,32.7,29.94,WSW,237,0.0,2.0,85,0.00,,FEW250,0.00,VWS V14.01,2013-02-15 06:40:00,
2013-02-15 01:45:00,36.6,32.5,29.94,SW,226,0.0,4.0,85,0.00,,FEW250,0.00,VWS V14.01,2013-02-15 06:45:00,
2013-02-15 01:50:00,36.7,32.6,29.95,SW,225,0.0,4.0,85,0.00,,FEW250,0.00,VWS V14.01,2013-02-15 06:50:00,
2013-02-15 01:55:00,36.6,32.8,29.94,WSW,239,0.0,4.0,86,0.00,,FEW250,0.00,VWS V14.01,2013-02-15 06:55:00,
2013-02-15 02:00:00,36.6,32.8,29.94,SW,219,0.0,0.0,85,0.00,,FEW250,0.00,VWS V14.01,2013-02-15 07:00:00,
2013-02-15 02:05:00,36.4,32.3,29.93,SW,220,0.0,5.0,85,0.00,,SCT250,0.00,VWS V14.01,2013-02-15 07:05:00,
2013-02-15 02:10:00,36.4,32.3,29.93,SW,220,0.0,5.0,85,0.00,,SCT250,0.00,VWS V14.01,2013-02-15 07:10:00,
2013-02-15 02:15:00,36.4,32.3,29.93,SW,220,2.0,5.0,85,0.00,,SCT250,0.00,VWS V14.01,2013-02-15 07:15:00,
2013-02-15 02:20:00,36.3,32.2,29.93,SW,230,3.0,5.0,85,0.00,,SCT250,0.00,VWS V14.01,2013-02-15 07:20:00,
2013-02-15 02:25:00,36.3,32.5,29.94,West,264,0.0,5.0,86,0.00,,SCT250,0.00,VWS V14.01,2013-02-15 07:25:00,
2013-02-15 02:30:00,36.2,32.4,29.92,WSW,247,0.0,1.0,86,0.00,,SCT250,0.00,VWS V14.01,2013-02-15 07:30:00,
2013-02-15 02:35:00,36.3,32.2,29.93,SW,228,2.0,4.0,85,0.00,,SCT250,0.00,VWS V14.01,2013-02-15 07:35:00,
2013-02-15 02:40:00,36.4,32.6,29.93,SW,227,0.0,4.0,85,0.00,,SCT250,0.00,VWS V14.01,2013-02-15 07:40:00,
2013-02-15 02:45:00,36.3,32.5,29.92,SW,228,0.0,4.0,86,0.00,,SCT250,0.00,VWS V14.01,2013-02-15 07:45:00,
2013-02-15 02:50:00,36.3,32.5,29.92,SW,227,0.0,4.0,86,0.00,,SCT250,0.00,VWS V14.01,2013-02-15 07:50:00,
2013-02-15 02:55:00,36.4,32.6,29.93,SW,228,0.0,4.0,86,0.00,,SCT250,0.00,VWS V14.01,2013-02-15 07:55:00,
2013-02-15 03:00:00,36.4,32.6,29.92,SW,228,2.0,4.0,86,0.00,,SCT250,0.00,VWS V14.01,2013-02-15 08:00:00,
2013-02-15 03:05:00,36.5,32.7,29.93,SW,228,0.0,4.0,86,0.00,,SCT250,0.00,VWS V14.01,2013-02-15 08:05:00,
2013-02-15 03:10:00,36.5,32.7,29.93,SW,228,0.0,5.0,86,0.00,,SCT250,0.00,VWS V14.01,2013-02-15 08:10:00,
2013-02-15 03:15:00,36.5,32.7,29.92,SW,229,0.0,5.0,86,0.00,,SCT250,0.00,VWS V14.01,2013-02-15 08:15:00,
2013-02-15 03:20:00,36.4,32.6,29.92,SW,229,0.0,5.0,86,0.00,,SCT250,0.00,VWS V14.01,2013-02-15 08:20:00,
2013-02-15 03:25:00,36.4,32.6,29.93,SW,229,0.0,5.0,86,0.00,,SCT250,0.00,VWS V14.01,2013-02-15 08:25:00,
2013-02-15 03:30:00,36.3,32.5,29.93,WSW,248,2.0,2.0,86,0.00,,SCT250,0.00,VWS V14.01,2013-02-15 08:30:00,
2013-02-15 03:35:00,36.2,32.7,29.93,WSW,242,3.0,5.0,87,0.00,,SCT250,0.00,VWS V14.01,2013-02-15 08:35:00,
2013-02-15 03:40:00,36.2,32.7,29.93,WSW,242,3.0,5.0,87,0.00,,SCT250,0.00,VWS V14.01,2013-02-15 08:40:00,
2013-02-15 03:45:00,36.1,32.6,29.93,WSW,243,0.0,5.0,87,0.00,,SCT250,0.00,VWS V14.01,2013-02-15 08:45:00,
2013-02-15 03:50:00,36.1,32.6,29.93,WSW,242,0.0,5.0,87,0.00,,SCT250,0.00,VWS V14.01,2013-02-15 08:50:00,
2013-02-15 03:55:00,36.1,32.6,29.93,WSW,243,0.0,5.0,87,0.00,,SCT250,0.00,VWS V14.01,2013-02-15 08:55:00,
2013-02-15 04:00:00,35.9,32.4,29.93,WSW,242,0.0,0.0,87,0.00,,SCT250,0.00,VWS V14.01,2013-02-15 09:00:00,
2013-02-15 04:05:00,35.9,32.7,29.93,WSW,242,2.0,2.0,88,0.00,,BKN250,0.00,VWS V14.01,2013-02-15 09:05:00,
2013-02-15 04:10:00,35.7,32.2,29.93,WSW,241,0.0,3.0,87,0.00,,BKN250,0.00,VWS V14.01,2013-02-15 09:10:00,
2013-02-15 04:15:00,35.7,32.6,29.93,SW,227,0.0,4.0,88,0.00,,BKN250,0.00,VWS V14.01,2013-02-15 09:15:00,
2013-02-15 04:20:00,35.7,32.5,29.93,SW,228,2.0,4.0,88,0.00,,BKN250,0.00,VWS V14.01,2013-02-15 09:20:00,
2013-02-15 04:25:00,35.9,32.5,29.93,SW,222,3.0,4.0,88,0.00,,BKN250,0.00,VWS V14.01,2013-02-15 09:25:00,
2013-02-15 04:30:00,35.7,32.5,29.93,SW,218,0.0,0.0,88,0.00,,BKN250,0.00,VWS V14.01,2013-02-15 09:30:00,
2013-02-15 04:35:00,35.7,32.5,29.93,SW,214,0.0,6.0,88,0.00,,BKN250,0.00,VWS V14.01,2013-02-15 09:35:00,
2013-02-15 04:40:00,35.6,32.4,29.93,SW,214,0.0,6.0,88,0.00,,BKN250,0.00,VWS V14.01,2013-02-15 09:40:00,
2013-02-15 04:44:00,35.7,32.5,29.94,SW,221,0.0,6.0,88,0.00,,BKN250,0.00,VWS V14.01,2013-02-15 09:44:00,
2013-02-15 04:49:00,35.5,32.0,29.94,SW,222,0.0,6.0,87,0.00,,BKN250,0.00,VWS V14.01,2013-02-15 09:49:00,
2013-02-15 04:54:00,35.6,32.4,29.94,SW,222,2.0,6.0,88,0.00,,BKN250,0.00,VWS V14.01,2013-02-15 09:54:00,
2013-02-15 04:59:00,35.7,32.5,29.94,SW,221,2.0,2.0,88,0.00,,BKN250,0.00,VWS V14.01,2013-02-15 09:59:00,
2013-02-15 05:04:00,35.7,32.2,29.94,SW,221,1.0,3.0,87,0.00,,BKN250,0.00,VWS V14.01,2013-02-15 10:04:00,
2013-02-15 05:09:00,35.7,32.2,29.94,SW,221,0.0,3.0,87,0.00,,BKN250,0.00,VWS V14.01,2013-02-15 10:09:00,
2013-02-15 05:14:00,35.7,32.2,29.93,SW,221,0.0,3.0,87,0.00,,BKN250,0.00,VWS V14.01,2013-02-15 10:14:00,
2013-02-15 05:19:00,35.5,32.0,29.93,SW,221,0.0,3.0,87,0.00,,BKN250,0.00,VWS V14.01,2013-02-15 10:19:00,
2013-02-15 05:24:00,35.4,31.9,29.94,SW,221,0.0,3.0,87,0.00,,BKN250,0.00,VWS V14.01,2013-02-15 10:24:00,
2013-02-15 05:29:00,35.2,31.7,29.94,SW,221,0.0,0.0,87,0.00,,BKN250,0.00,VWS V14.01,2013-02-15 10:29:00,
2013-02-15 05:34:00,35.1,31.9,29.94,SW,222,0.0,0.0,88,0.00,,BKN250,0.00,VWS V14.01,2013-02-15 10:34:00,
2013-02-15 05:39:00,34.9,31.4,29.93,SW,221,0.0,0.0,87,0.00,,BKN250,0.00,VWS V14.01,2013-02-15 10:39:00,
2013-02-15 05:44:00,34.7,31.2,29.93,SW,221,0.0,0.0,87,0.00,,BKN250,0.00,VWS V14.01,2013-02-15 10:44:00,
2013-02-15 05:49:00,34.6,31.1,29.93,SW,221,0.0,0.0,87,0.00,,BKN250,0.00,VWS V14.01,2013-02-15 10:49:00,
2013-02-15 05:54:00,34.5,31.0,29.93,SW,221,0.0,0.0,87,0.00,,BKN250,0.00,VWS V14.01,2013-02-15 10:54:00,
2013-02-15 05:59:00,34.4,30.9,29.93,SW,221,0.0,0.0,87,0.00,,BKN250,0.00,VWS V14.01,2013-02-15 10:59:00,
2013-02-15 06:04:00,34.3,30.8,29.93,SW,220,0.0,0.0,88,0.00,,SCT250,0.00,VWS V14.01,2013-02-15 11:04:00,
2013-02-15 06:09:00,34.2,31.0,29.92,SW,221,0.0,0.0,88,0.00,,SCT250,0.00,VWS V14.01,2013-02-15 11:09:00,
2013-02-15 06:14:00,34.2,31.0,29.92,SW,221,0.0,0.0,87,0.00,,SCT250,0.00,VWS V14.01,2013-02-15 11:14:00,
2013-02-15 06:19:00,34.1,30.9,29.92,SW,222,0.0,0.0,88,0.00,,SCT250,0.00,VWS V14.01,2013-02-15 11:19:00,
2013-02-15 06:24:00,34.1,30.9,29.92,SW,221,0.0,1.0,88,0.00,,SCT250,0.00,VWS V14.01,2013-02-15 11:24:00,
2013-02-15 06:29:00,34.1,30.9,29.92,SW,221,0.0,0.0,88,0.00,,SCT250,0.00,VWS V14.01,2013-02-15 11:29:00,
2013-02-15 06:34:00,34.1,30.9,29.92,SW,221,0.0,0.0,88,0.00,,SCT250,0.00,VWS V14.01,2013-02-15 11:34:00,
2013-02-15 06:39:00,34.0,30.5,29.93,SW,221,0.0,0.0,87,0.00,,SCT250,0.00,VWS V14.01,2013-02-15 11:39:00,
2013-02-15 06:44:00,34.0,30.8,29.93,SW,221,0.0,0.0,88,0.00,,SCT250,0.00,VWS V14.01,2013-02-15 11:44:00,
2013-02-15 06:49:00,34.0,30.5,29.92,SW,221,0.0,0.0,87,0.00,,SCT250,0.00,VWS V14.01,2013-02-15 11:49:00,
2013-02-15 06:54:00,34.0,30.5,29.92,SW,221,0.0,0.0,87,0.00,,SCT250,0.00,VWS V14.01,2013-02-15 11:54:00,
2013-02-15 06:59:00,33.8,30.4,29.93,SW,221,0.0,0.0,87,0.00,,SCT250,0.00,VWS V14.01,2013-02-15 11:59:00,
2013-02-15 07:04:00,33.6,30.4,29.93,SW,221,0.0,1.0,88,0.00,,SCT250,0.00,VWS V14.01,2013-02-15 12:04:00,
2013-02-15 07:09:00,33.8,30.6,29.93,SW,222,1.0,3.0,88,0.00,,SCT250,0.00,VWS V14.01,2013-02-15 12:09:00,
2013-02-15 07:14:00,33.9,30.7,29.93,SW,221,1.0,3.0,88,0.00,,SCT250,0.00,VWS V14.01,2013-02-15 12:14:00,
2013-02-15 07:19:00,34.1,30.9,29.93,SW,221,0.0,3.0,88,0.00,,SCT250,0.00,VWS V14.01,2013-02-15 12:19:00,
2013-02-15 07:24:00,34.3,31.1,29.93,SW,221,0.0,3.0,88,0.00,,SCT250,0.00,VWS V14.01,2013-02-15 12:24:00,
2013-02-15 07:29:00,34.5,31.6,29.94,SW,221,0.0,3.0,89,0.00,,SCT250,0.00,VWS V14.01,2013-02-15 12:29:00,
2013-02-15 07:34:00,34.6,31.7,29.94,SSW,204,0.0,5.0,89,0.00,,SCT250,0.00,VWS V14.01,2013-02-15 12:34:00,
2013-02-15 07:39:00,34.9,31.9,29.94,SSW,204,0.0,5.0,89,0.00,,SCT250,0.00,VWS V14.01,2013-02-15 12:39:00,
2013-02-15 07:44:00,35.0,32.1,29.94,SSW,212,2.0,5.0,89,0.00,,SCT250,0.00,VWS V14.01,2013-02-15 12:44:00,
2013-02-15 07:49:00,35.2,32.3,29.95,SW,217,1.0,5.0,89,0.00,,SCT250,0.00,VWS V14.01,2013-02-15 12:49:00,
2013-02-15 07:54:00,35.4,32.5,29.95,SW,218,0.0,5.0,89,0.00,,SCT250,0.00,VWS V14.01,2013-02-15 12:54:00,
2013-02-15 07:59:00,35.7,32.8,29.95,SW,226,1.0,5.0,89,0.00,,SCT250,0.00,VWS V14.01,2013-02-15 12:59:00,
2013-02-15 08:04:00,35.9,33.0,29.94,WSW,243,0.0,4.0,89,0.00,,SCT250,0.00,VWS V14.01,2013-02-15 13:04:00,
2013-02-15 08:09:00,36.1,32.9,29.94,WSW,243,0.0,4.0,88,0.00,,SCT250,0.00,VWS V14.01,2013-02-15 13:09:00,
2013-02-15 08:14:00,36.3,33.1,29.95,WSW,245,2.0,5.0,88,0.00,,SCT250,0.00,VWS V14.01,2013-02-15 13:14:00,
2013-02-15 08:19:00,36.6,33.4,29.95,WSW,240,1.0,5.0,88,0.00,,SCT250,0.00,VWS V14.01,2013-02-15 13:19:00,
2013-02-15 08:24:00,36.8,33.3,29.95,WSW,252,4.0,8.0,87,0.00,,SCT250,0.00,VWS V14.01,2013-02-15 13:24:00,
2013-02-15 08:29:00,37.2,33.7,29.95,WSW,238,3.0,8.0,87,0.00,,SCT250,0.00,VWS V14.01,2013-02-15 13:29:00,
2013-02-15 08:34:00,37.5,33.7,29.95,SW,233,3.0,5.0,86,0.00,,SCT250,0.00,VWS V14.01,2013-02-15 13:34:00,
2013-02-15 08:39:00,37.7,33.9,29.95,WSW,248,4.0,8.0,86,0.00,,SCT250,0.00,VWS V14.01,2013-02-15 13:39:00,
2013-02-15 08:44:00,37.9,33.8,29.95,WSW,250,6.0,8.0,85,0.00,,SCT250,0.00,VWS V14.01,2013-02-15 13:44:00,
2013-02-15 08:49:00,38.1,34.0,29.95,SW,225,2.0,8.0,85,0.00,,SCT250,0.00,VWS V14.01,2013-02-15 13:49:00,
2013-02-15 08:54:00,38.3,34.2,29.95,West,260,5.0,8.0,85,0.00,,SCT250,0.00,VWS V14.01,2013-02-15 13:54:00,
2013-02-15 08:59:00,38.4,34.3,29.95,WSW,237,7.0,7.0,85,0.00,,SCT250,0.00,VWS V14.01,2013-02-15 13:59:00,
2013-02-15 09:04:00,38.6,34.2,29.95,SW,227,2.0,10.0,84,0.00,,SCT250,0.00,VWS V14.01,2013-02-15 14:04:00,
2013-02-15 09:09:00,38.8,34.4,29.95,WSW,248,5.0,10.0,84,0.00,,SCT250,0.00,VWS V14.01,2013-02-15 14:09:00,
2013-02-15 09:14:00,39.0,34.3,29.95,WSW,247,7.0,10.0,83,0.00,,SCT250,0.00,VWS V14.01,2013-02-15 14:14:00,
2013-02-15 09:19:00,39.1,34.4,29.94,West,273,3.0,10.0,83,0.00,,SCT250,0.00,VWS V14.01,2013-02-15 14:19:00,
2013-02-15 09:24:00,39.3,34.6,29.95,WSW,244,10.0,10.0,83,0.00,,SCT250,0.00,VWS V14.01,2013-02-15 14:24:00,
2013-02-15 09:29:00,39.4,34.4,29.95,WSW,249,5.0,10.0,82,0.00,,SCT250,0.00,VWS V14.01,2013-02-15 14:29:00,
2013-02-15 09:34:00,39.6,34.6,29.95,SW,221,3.0,8.0,82,0.00,,SCT250,0.00,VWS V14.01,2013-02-15 14:34:00,
2013-02-15 09:39:00,40.0,35.0,29.95,SW,226,3.0,8.0,82,0.00,,SCT250,0.00,VWS V14.01,2013-02-15 14:39:00,
2013-02-15 09:44:00,40.2,34.8,29.95,SW,233,5.0,9.0,81,0.00,,SCT250,0.00,VWS V14.01,2013-02-15 14:44:00,
2013-02-15 09:49:00,40.5,35.1,29.95,SW,231,3.0,9.0,81,0.00,,SCT250,0.00,VWS V14.01,2013-02-15 14:49:00,
2013-02-15 09:54:00,41.0,35.6,29.94,South,176,4.0,9.0,81,0.00,,SCT250,0.00,VWS V14.01,2013-02-15 14:54:00,
2013-02-15 09:59:00,41.3,35.6,29.95,West,266,6.0,9.0,80,0.00,,SCT250,0.00,VWS V14.01,2013-02-15 14:59:00,
2013-02-15 10:04:00,41.5,35.5,29.94,WSW,244,6.0,9.0,79,0.00,,SCT250,0.00,VWS V14.01,2013-02-15 15:04:00,
2013-02-15 10:09:00,41.6,35.6,29.94,West,276,6.0,10.0,79,0.00,,SCT250,0.00,VWS V14.01,2013-02-15 15:09:00,
2013-02-15 10:14:00,41.9,35.9,29.95,WSW,252,1.0,10.0,79,0.00,,SCT250,0.00,VWS V14.01,2013-02-15 15:14:00,
2013-02-15 10:19:00,42.3,35.9,29.95,WSW,253,4.0,10.0,78,0.00,,SCT250,0.00,VWS V14.01,2013-02-15 15:19:00,
2013-02-15 10:24:00,42.6,35.9,29.95,WNW,293,0.0,10.0,77,0.00,,SCT250,0.00,VWS V14.01,2013-02-15 15:24:00,
2013-02-15 10:29:00,43.1,36.4,29.95,WSW,254,7.0,10.0,77,0.00,,SCT250,0.00,VWS V14.01,2013-02-15 15:29:00,
2013-02-15 10:34:00,43.5,36.5,29.95,WSW,240,6.0,8.0,76,0.00,,SCT250,0.00,VWS V14.01,2013-02-15 15:34:00,
2013-02-15 10:39:00,43.9,36.8,29.95,West,259,4.0,8.0,76,0.00,,SCT250,0.00,VWS V14.01,2013-02-15 15:39:00,
2013-02-15 10:44:00,44.1,36.7,29.94,WSW,244,2.0,9.0,75,0.00,,SCT250,0.00,VWS V14.01,2013-02-15 15:44:00,
2013-02-15 10:49:00,44.6,37.2,29.95,WSW,245,4.0,9.0,75,0.00,,SCT250,0.00,VWS V14.01,2013-02-15 15:49:00,
2013-02-15 10:54:00,44.8,37.0,29.94,WSW,238,0.0,12.0,74,0.00,,SCT250,0.00,VWS V14.01,2013-02-15 15:54:00,
2013-02-15 10:59:00,44.8,37.0,29.94,SW,235,5.0,12.0,74,0.00,,SCT250,0.00,VWS V14.01,2013-02-15 15:59:00,
2013-02-15 11:04:00,45.2,37.4,29.95,WNW,287,0.0,5.0,74,0.00,,FEW250,0.00,VWS V14.01,2013-02-15 16:04:00,
2013-02-15 11:09:00,45.6,37.5,29.94,SW,236,6.0,11.0,73,0.00,,FEW250,0.00,VWS V14.01,2013-02-15 16:09:00,
2013-02-15 11:14:00,45.7,37.2,29.94,WSW,252,4.0,11.0,72,0.00,,FEW250,0.00,VWS V14.01,2013-02-15 16:14:00,
2013-02-15 11:19:00,45.9,37.4,29.93,SW,230,1.0,11.0,72,0.00,,FEW250,0.00,VWS V14.01,2013-02-15 16:19:00,
2013-02-15 11:24:00,46.2,37.7,29.94,SW,223,6.0,11.0,72,0.00,,FEW250,0.00,VWS V14.01,2013-02-15 16:24:00,
2013-02-15 11:29:00,46.4,37.9,29.94,West,276,2.0,11.0,72,0.00,,FEW250,0.00,VWS V14.01,2013-02-15 16:29:00,
2013-02-15 11:34:00,46.7,37.8,29.94,WSW,252,7.0,8.0,71,0.00,,FEW250,0.00,VWS V14.01,2013-02-15 16:34:00,
2013-02-15 11:39:00,46.9,38.0,29.93,WSW,244,2.0,8.0,71,0.00,,FEW250,0.00,VWS V14.01,2013-02-15 16:39:00,
2013-02-15 11:44:00,47.2,37.9,29.93,WSW,246,6.0,10.0,70,0.00,,FEW250,0.00,VWS V14.01,2013-02-15 16:44:00,
2013-02-15 11:49:00,47.6,38.3,29.93,SSW,198,5.0,10.0,70,0.00,,FEW250,0.00,VWS V14.01,2013-02-15 16:49:00,
2013-02-15 11:54:00,48.0,38.4,29.93,WSW,247,4.0,10.0,69,0.00,,FEW250,0.00,VWS V14.01,2013-02-15 16:54:00,
2013-02-15 11:59:00,48.2,38.2,29.92,WNW,283,4.0,10.0,68,0.00,,FEW250,0.00,VWS V14.01,2013-02-15 16:59:00,
2013-02-15 12:04:00,48.5,38.5,29.92,SW,229,0.0,6.0,68,0.00,,FEW250,0.00,VWS V14.01,2013-02-15 17:04:00,
2013-02-15 12:09:00,49.1,39.0,29.92,SSW,197,3.0,7.0,68,0.00,,FEW250,0.00,VWS V14.01,2013-02-15 17:09:00,
2013-02-15 12:14:00,49.5,38.5,29.91,West,267,2.0,9.0,66,0.00,,FEW250,0.00,VWS V14.01,2013-02-15 17:14:00,
2013-02-15 12:19:00,49.6,39.1,29.91,West,259,3.0,9.0,67,0.00,,FEW250,0.00,VWS V14.01,2013-02-15 17:19:00,
2013-02-15 12:24:00,49.9,39.0,29.91,WNW,288,4.0,9.0,66,0.00,,FEW250,0.00,VWS V14.01,2013-02-15 17:24:00,
2013-02-15 12:29:00,50.3,39.4,29.91,WSW,250,4.0,9.0,66,0.00,,FEW250,0.00,VWS V14.01,2013-02-15 17:29:00,
2013-02-15 12:34:00,50.3,39.0,29.91,SSW,213,1.0,8.0,65,0.00,,FEW250,0.00,VWS V14.01,2013-02-15 17:34:00,
2013-02-15 12:39:00,50.4,38.7,29.90,SW,222,5.0,8.0,64,0.00,,FEW250,0.00,VWS V14.01,2013-02-15 17:39:00,
2013-02-15 12:44:00,50.7,39.4,29.90,SW,223,1.0,8.0,65,0.00,,FEW250,0.00,VWS V14.01,2013-02-15 17:44:00,
2013-02-15 12:49:00,51.2,39.5,29.90,SW,232,3.0,8.0,64,0.00,,FEW250,0.00,VWS V14.01,2013-02-15 17:49:00,
2013-02-15 12:54:00,51.4,39.2,29.90,WSW,243,6.0,9.0,63,0.00,,FEW250,0.00,VWS V14.01,2013-02-15 17:54:00,
2013-02-15 12:59:00,51.7,39.5,29.89,WSW,245,3.0,9.0,63,0.00,,FEW250,0.00,VWS V14.01,2013-02-15 17:59:00,
2013-02-15 13:04:00,51.8,39.2,29.89,West,275,4.0,7.0,62,0.00,,CLR,0.00,VWS V14.01,2013-02-15 18:04:00,
2013-02-15 13:09:00,51.7,38.7,29.90,WSW,248,4.0,8.0,61,0.00,,CLR,0.00,VWS V14.01,2013-02-15 18:09:00,
2013-02-15 13:14:00,52.0,39.4,29.89,SW,217,8.0,9.0,62,0.00,,CLR,0.00,VWS V14.01,2013-02-15 18:14:00,
2013-02-15 13:19:00,52.5,39.5,29.89,SSW,192,5.0,11.0,61,0.00,,CLR,0.00,VWS V14.01,2013-02-15 18:19:00,
2013-02-15 13:24:00,52.8,39.3,29.89,WSW,247,1.0,11.0,60,0.00,,CLR,0.00,VWS V14.01,2013-02-15 18:24:00,
2013-02-15 13:29:00,53.0,39.1,29.89,WSW,237,3.0,11.0,59,0.00,,CLR,0.00,VWS V14.01,2013-02-15 18:29:00,
2013-02-15 13:34:00,53.1,39.2,29.88,West,269,5.0,7.0,59,0.00,,CLR,0.00,VWS V14.01,2013-02-15 18:34:00,
2013-02-15 13:39:00,52.9,38.5,29.89,WNW,283,5.0,7.0,58,0.00,,CLR,0.00,VWS V14.01,2013-02-15 18:39:00,
2013-02-15 13:44:00,52.9,39.0,29.88,SSW,198,2.0,8.0,59,0.00,,CLR,0.00,VWS V14.01,2013-02-15 18:44:00,
2013-02-15 13:49:00,53.2,38.4,29.88,WSW,242,7.0,11.0,57,0.00,,CLR,0.00,VWS V14.01,2013-02-15 18:49:00,
2013-02-15 13:54:00,53.1,38.3,29.88,SSW,206,7.0,11.0,57,0.00,,CLR,0.00,VWS V14.01,2013-02-15 18:54:00,
2013-02-15 13:59:00,53.4,38.6,29.87,SW,235,6.0,11.0,57,0.00,,CLR,0.00,VWS V14.01,2013-02-15 18:59:00,
2013-02-15 14:04:00,53.4,38.6,29.87,SSW,211,2.0,7.0,57,0.00,,FEW045,0.00,VWS V14.01,2013-02-15 19:04:00,
2013-02-15 14:09:00,53.4,38.6,29.87,WSW,244,4.0,9.0,57,0.00,,FEW045,0.00,VWS V14.01,2013-02-15 19:09:00,
2013-02-15 14:14:00,53.5,38.2,29.87,SW,231,6.0,9.0,56,0.00,,FEW045,0.00,VWS V14.01,2013-02-15 19:14:00,
2013-02-15 14:19:00,53.6,38.3,29.87,WSW,247,0.0,9.0,56,0.00,,FEW045,0.00,VWS V14.01,2013-02-15 19:19:00,
2013-02-15 14:24:00,53.8,38.5,29.87,West,272,4.0,9.0,56,0.00,,FEW045,0.00,VWS V14.01,2013-02-15 19:24:00,
2013-02-15 14:29:00,54.0,39.2,29.87,WSW,244,0.0,9.0,57,0.00,,FEW045,0.00,VWS V14.01,2013-02-15 19:29:00,
2013-02-15 14:34:00,54.4,39.0,29.87,SW,220,2.0,6.0,56,0.00,,FEW045,0.00,VWS V14.01,2013-02-15 19:34:00,
2013-02-15 14:39:00,54.7,38.9,29.86,SSW,204,8.0,9.0,55,0.00,,FEW045,0.00,VWS V14.01,2013-02-15 19:39:00,
2013-02-15 14:44:00,54.7,39.8,29.87,SSW,212,4.0,10.0,57,0.00,,FEW045,0.00,VWS V14.01,2013-02-15 19:44:00,
2013-02-15 14:49:00,54.9,40.4,29.87,SSW,203,5.0,10.0,58,0.00,,FEW045,0.00,VWS V14.01,2013-02-15 19:49:00,
2013-02-15 14:54:00,55.1,40.6,29.86,SSW,204,7.0,11.0,58,0.00,,FEW045,0.00,VWS V14.01,2013-02-15 19:54:00,
2013-02-15 14:59:00,55.1,40.6,29.86,South,184,4.0,11.0,58,0.00,,FEW045,0.00,VWS V14.01,2013-02-15 19:59:00,
2013-02-15 15:04:00,55.3,41.2,29.86,South,191,7.0,8.0,59,0.00,,FEW045,0.00,VWS V14.01,2013-02-15 20:04:00,
2013-02-15 15:09:00,55.0,41.0,29.86,SW,232,6.0,8.0,59,0.00,,FEW045,0.00,VWS V14.01,2013-02-15 20:09:00,
2013-02-15 15:14:00,54.5,40.9,29.86,SW,221,4.0,9.0,60,0.00,,FEW045,0.00,VWS V14.01,2013-02-15 20:14:00,
2013-02-15 15:19:00,54.4,40.8,29.86,SW,219,6.0,9.0,60,0.00,,FEW045,0.00,VWS V14.01,2013-02-15 20:19:00,
2013-02-15 15:24:00,54.3,41.2,29.86,SW,219,0.0,9.0,61,0.00,,FEW045,0.00,VWS V14.01,2013-02-15 20:24:00,
2013-02-15 15:29:00,54.3,41.2,29.86,SSW,208,4.0,10.0,61,0.00,,FEW045,0.00,VWS V14.01,2013-02-15 20:29:00,
2013-02-15 15:34:00,54.1,41.0,29.86,SW,221,0.0,8.0,61,0.00,,FEW045,0.00,VWS V14.01,2013-02-15 20:34:00,
2013-02-15 15:39:00,54.1,41.4,29.86,SW,226,6.0,8.0,62,0.00,,FEW045,0.00,VWS V14.01,2013-02-15 20:39:00,
2013-02-15 15:44:00,53.7,41.0,29.86,SW,230,6.0,10.0,62,0.00,,FEW045,0.00,VWS V14.01,2013-02-15 20:44:00,
2013-02-15 15:49:00,53.1,40.7,29.86,SSW,194,2.0,10.0,63,0.00,,FEW045,0.00,VWS V14.01,2013-02-15 20:49:00,
2013-02-15 15:54:00,52.6,40.8,29.86,SSW,210,1.0,10.0,64,0.00,,FEW045,0.00,VWS V14.01,2013-02-15 20:54:00,
2013-02-15 15:59:00,52.6,40.4,29.86,WSW,239,0.0,10.0,63,0.00,,FEW045,0.00,VWS V14.01,2013-02-15 20:59:00,
2013-02-15 16:04:00,52.2,40.4,29.86,WSW,256,5.0,10.0,64,0.00,,FEW045,0.00,VWS V14.01,2013-02-15 21:04:00,
2013-02-15 16:09:00,51.8,40.4,29.86,SSW,208,5.0,10.0,65,0.00,,FEW045,0.00,VWS V14.01,2013-02-15 21:09:00,
2013-02-15 16:14:00,51.4,40.0,29.86,South,186,2.0,10.0,65,0.00,,FEW045,0.00,VWS V14.01,2013-02-15 21:14:00,
2013-02-15 16:19:00,50.9,39.9,29.86,SW,219,7.0,10.0,66,0.00,,FEW045,0.00,VWS V14.01,2013-02-15 21:19:00,
2013-02-15 16:24:00,50.4,39.9,29.87,South,183,8.0,11.0,67,0.00,,FEW045,0.00,VWS V14.01,2013-02-15 21:24:00,
2013-02-15 16:29:00,49.8,39.7,29.87,SW,225,5.0,11.0,68,0.00,,FEW045,0.00,VWS V14.01,2013-02-15 21:29:00,
2013-02-15 16:34:00,49.4,39.3,29.87,SSW,195,4.0,8.0,68,0.00,,FEW045,0.00,VWS V14.01,2013-02-15 21:34:00,
2013-02-15 16:39:00,49.3,39.6,29.87,SSW,198,1.0,8.0,69,0.00,,FEW045,0.00,VWS V14.01,2013-02-15 21:39:00,
2013-02-15 16:44:00,49.0,39.3,29.87,SSW,198,3.0,8.0,69,0.00,,FEW045,0.00,VWS V14.01,2013-02-15 21:44:00,
2013-02-15 16:49:00,48.9,39.6,29.87,SSW,201,0.0,8.0,70,0.00,,FEW045,0.00,VWS V14.01,2013-02-15 21:49:00,
2013-02-15 16:54:00,48.4,39.1,29.86,SSW,200,0.0,8.0,70,0.00,,FEW045,0.00,VWS V14.01,2013-02-15 21:54:00,
2013-02-15 16:59:00,48.2,39.2,29.86,SW,228,1.0,8.0,71,0.00,,FEW045,0.00,VWS V14.01,2013-02-15 21:59:00,
2013-02-15 17:04:00,47.9,39.0,29.86,South,175,0.0,5.0,71,0.00,,SCT045,0.00,VWS V14.01,2013-02-15 22:04:00,
2013-02-15 17:09:00,47.7,39.0,29.87,SW,231,2.0,6.0,72,0.00,,SCT045,0.00,VWS V14.01,2013-02-15 22:09:00,
2013-02-15 17:14:00,47.4,38.8,29.87,SW,221,5.0,6.0,72,0.00,,SCT045,0.00,VWS V14.01,2013-02-15 22:14:00,
2013-02-15 17:19:00,47.3,39.0,29.87,SW,233,0.0,6.0,73,0.00,,SCT045,0.00,VWS V14.01,2013-02-15 22:19:00,
2013-02-15 17:24:00,47.1,38.9,29.87,SW,230,0.0,6.0,73,0.00,,SCT045,0.00,VWS V14.01,2013-02-15 22:24:00,
2013-02-15 17:29:00,46.8,39.0,29.87,SSW,197,3.0,6.0,74,0.00,,SCT045,0.00,VWS V14.01,2013-02-15 22:29:00,
2013-02-15 17:34:00,46.6,38.8,29.87,SSW,197,0.0,3.0,74,0.00,,SCT045,0.00,VWS V14.01,2013-02-15 22:34:00,
2013-02-15 17:39:00,46.4,38.6,29.87,SW,221,0.0,4.0,74,0.00,,SCT045,0.00,VWS V14.01,2013-02-15 22:39:00,
2013-02-15 17:44:00,46.2,38.7,29.87,SW,214,0.0,4.0,75,0.00,,SCT045,0.00,VWS V14.01,2013-02-15 22:44:00,
2013-02-15 17:49:00,46.0,38.9,29.87,SSW,211,2.0,4.0,75,0.00,,SCT045,0.00,VWS V14.01,2013-02-15 22:49:00,
2013-02-15 17:54:00,45.7,38.6,29.86,SSW,192,2.0,4.0,76,0.00,,SCT045,0.00,VWS V14.01,2013-02-15 22:54:00,
2013-02-15 17:59:00,45.6,38.5,29.87,SSW,192,0.0,4.0,76,0.00,,SCT045,0.00,VWS V14.01,2013-02-15 22:59:00,
2013-02-15 18:04:00,45.5,38.7,29.87,SSW,192,0.0,2.0,77,0.00,,SCT045,0.00,VWS V14.01,2013-02-15 23:04:00,
2013-02-15 18:09:00,45.3,38.5,29.87,SSW,192,0.0,4.0,77,0.00,,SCT045,0.00,VWS V14.01,2013-02-15 23:09:00,
2013-02-15 18:14:00,45.2,38.4,29.87,South,189,3.0,4.0,77,0.00,,SCT045,0.00,VWS V14.01,2013-02-15 23:14:00,
2013-02-15 18:19:00,45.2,38.4,29.87,South,189,0.0,4.0,77,0.00,,SCT045,0.00,VWS V14.01,2013-02-15 23:19:00,
2013-02-15 18:24:00,45.3,38.9,29.87,South,189,0.0,4.0,78,0.00,,SCT045,0.00,VWS V14.01,2013-02-15 23:24:00,
2013-02-15 18:29:00,45.3,38.8,29.87,South,189,1.0,4.0,78,0.00,,SCT045,0.00,VWS V14.01,2013-02-15 23:29:00,
2013-02-15 18:34:00,45.2,38.8,29.86,South,189,2.0,2.0,78,0.00,,SCT045,0.00,VWS V14.01,2013-02-15 23:34:00,
2013-02-15 18:39:00,45.1,38.7,29.86,South,189,0.0,2.0,78,0.00,,SCT045,0.00,VWS V14.01,2013-02-15 23:39:00,
2013-02-15 18:44:00,44.8,38.4,29.87,South,191,0.0,5.0,78,0.00,,SCT045,0.00,VWS V14.01,2013-02-15 23:44:00,
2013-02-15 18:49:00,44.7,38.3,29.86,SSW,192,0.0,6.0,78,0.00,,SCT045,0.00,VWS V14.01,2013-02-15 23:49:00,
2013-02-15 18:54:00,44.6,38.2,29.86,SSW,193,2.0,6.0,78,0.00,,SCT045,0.00,VWS V14.01,2013-02-15 23:54:00,
2013-02-15 18:59:00,44.5,38.1,29.86,SSW,193,0.0,6.0,78,0.00,,SCT045,0.00,VWS V14.01,2013-02-15 23:59:00,
2013-02-15 19:04:00,44.4,38.0,29.86,SSW,192,0.0,5.0,78,0.00,,BKN250,0.00,VWS V14.01,2013-02-16 00:04:00,
2013-02-15 19:09:00,44.2,38.1,29.86,SSW,192,0.0,5.0,79,0.00,,BKN250,0.00,VWS V14.01,2013-02-16 00:09:00,
2013-02-15 19:14:00,44.2,38.1,29.86,SSW,192,0.0,5.0,79,0.00,,BKN250,0.00,VWS V14.01,2013-02-16 00:14:00,
2013-02-15 19:19:00,44.2,38.1,29.86,SSW,192,0.0,5.0,79,0.00,,BKN250,0.00,VWS V14.01,2013-02-16 00:19:00,
2013-02-15 19:24:00,44.1,38.0,29.86,South,191,0.0,5.0,79,0.00,,BKN250,0.00,VWS V14.01,2013-02-16 00:24:00,
2013-02-15 19:29:00,44.0,38.2,29.86,South,191,0.0,5.0,80,0.00,,BKN250,0.00,VWS V14.01,2013-02-16 00:29:00,
2013-02-15 19:34:00,44.1,38.0,29.86,South,191,0.0,0.0,79,0.00,,BKN250,0.00,VWS V14.01,2013-02-16 00:34:00,
2013-02-15 19:39:00,44.2,38.4,29.86,SSW,192,0.0,0.0,80,0.00,,BKN250,0.00,VWS V14.01,2013-02-16 00:39:00,
2013-02-15 19:44:00,44.2,38.1,29.85,SSW,192,0.0,1.0,80,0.00,,BKN250,0.00,VWS V14.01,2013-02-16 00:44:00,
2013-02-15 19:49:00,44.2,38.1,29.86,South,191,0.0,1.0,79,0.00,,BKN250,0.00,VWS V14.01,2013-02-16 00:49:00,
2013-02-15 19:54:00,44.3,38.2,29.86,SSW,192,0.0,1.0,79,0.00,,BKN250,0.00,VWS V14.01,2013-02-16 00:54:00,
2013-02-15 19:59:00,44.3,38.2,29.86,South,191,0.0,1.0,79,0.00,,BKN250,0.00,VWS V14.01,2013-02-16 00:59:00,
2013-02-15 20:04:00,44.2,37.8,29.86,South,191,0.0,0.0,78,0.00,,BKN075,0.00,VWS V14.01,2013-02-16 01:04:00,
2013-02-15 20:09:00,44.1,38.0,29.86,South,191,0.0,0.0,79,0.00,,BKN075,0.00,VWS V14.01,2013-02-16 01:09:00,
2013-02-15 20:14:00,44.0,37.9,29.85,SSW,192,0.0,0.0,79,0.00,,BKN075,0.00,VWS V14.01,2013-02-16 01:14:00,
2013-02-15 20:19:00,43.9,37.8,29.85,SSW,192,0.0,0.0,79,0.00,,BKN075,0.00,VWS V14.01,2013-02-16 01:19:00,
2013-02-15 20:24:00,43.7,37.6,29.86,SSW,192,0.0,0.0,79,0.00,,BKN075,0.00,VWS V14.01,2013-02-16 01:24:00,
2013-02-15 20:29:00,43.6,37.8,29.85,SSW,192,0.0,0.0,80,0.00,,BKN075,0.00,VWS V14.01,2013-02-16 01:29:00,
2013-02-15 20:34:00,43.5,37.8,29.86,South,191,0.0,0.0,80,0.00,,BKN075,0.00,VWS V14.01,2013-02-16 01:34:00,
2013-02-15 20:39:00,43.4,37.7,29.85,SSW,192,0.0,0.0,80,0.00,,BKN075,0.00,VWS V14.01,2013-02-16 01:39:00,
2013-02-15 20:44:00,43.3,37.6,29.86,SSW,192,0.0,0.0,80,0.00,,BKN075,0.00,VWS V14.01,2013-02-16 01:44:00,
2013-02-15 20:49:00,43.1,37.4,29.85,South,191,0.0,0.0,80,0.00,,BKN075,0.00,VWS V14.01,2013-02-16 01:49:00,
2013-02-15 20:54:00,43.1,37.7,29.85,South,191,0.0,0.0,81,0.00,,BKN075,0.00,VWS V14.01,2013-02-16 01:54:00,
2013-02-15 20:59:00,43.0,37.6,29.85,SSW,192,0.0,0.0,81,0.00,,BKN075,0.00,VWS V14.01,2013-02-16 01:59:00,
2013-02-15 21:04:00,43.1,37.7,29.86,SSW,192,0.0,1.0,81,0.00,,BKN080,0.00,VWS V14.01,2013-02-16 02:04:00,
2013-02-15 21:09:00,43.4,38.0,29.86,SSW,192,0.0,1.0,81,0.00,,BKN080,0.00,VWS V14.01,2013-02-16 02:09:00,
2013-02-15 21:14:00,43.5,38.1,29.86,SSW,192,0.0,3.0,81,0.00,,BKN080,0.00,VWS V14.01,2013-02-16 02:14:00,
2013-02-15 21:19:00,43.6,38.2,29.86,SSW,192,0.0,3.0,81,0.00,,BKN080,0.00,VWS V14.01,2013-02-16 02:19:00,
2013-02-15 21:24:00,43.5,38.1,29.86,SSW,192,0.0,3.0,81,0.00,,BKN080,0.00,VWS V14.01,2013-02-16 02:24:00,
2013-02-15 21:29:00,43.4,38.0,29.86,SSW,192,0.0,3.0,81,0.00,,BKN080,0.00,VWS V14.01,2013-02-16 02:29:00,
2013-02-15 21:34:00,43.3,38.2,29.85,South,191,0.0,0.0,82,0.00,,BKN080,0.00,VWS V14.01,2013-02-16 02:34:00,
2013-02-15 21:39:00,43.4,38.3,29.85,SSW,192,0.0,0.0,82,0.00,,BKN080,0.00,VWS V14.01,2013-02-16 02:39:00,
2013-02-15 21:44:00,43.5,38.3,29.85,SSW,192,0.0,0.0,82,0.00,,BKN080,0.00,VWS V14.01,2013-02-16 02:44:00,
2013-02-15 21:49:00,43.5,38.4,29.86,South,191,0.0,0.0,82,0.00,,BKN080,0.00,VWS V14.01,2013-02-16 02:49:00,
2013-02-15 21:54:00,43.2,38.1,29.85,SSW,192,0.0,0.0,82,0.00,,BKN080,0.00,VWS V14.01,2013-02-16 02:54:00,
2013-02-15 21:59:00,43.0,38.2,29.85,South,191,0.0,0.0,83,0.00,,BKN080,0.00,VWS V14.01,2013-02-16 02:59:00,
2013-02-15 22:04:00,42.9,38.1,29.85,SSW,192,0.0,0.0,83,0.00,,OVC090,0.00,VWS V14.01,2013-02-16 03:04:00,
2013-02-15 22:09:00,42.9,38.1,29.86,SSW,192,0.0,1.0,83,0.00,,OVC090,0.00,VWS V14.01,2013-02-16 03:09:00,
2013-02-15 22:14:00,42.8,38.3,29.86,SSW,192,0.0,1.0,84,0.00,,OVC090,0.00,VWS V14.01,2013-02-16 03:14:00,
2013-02-15 22:19:00,42.8,38.3,29.86,South,191,0.0,1.0,84,0.00,,OVC090,0.00,VWS V14.01,2013-02-16 03:19:00,
2013-02-15 22:24:00,42.9,38.4,29.86,SSW,192,0.0,1.0,84,0.00,,OVC090,0.00,VWS V14.01,2013-02-16 03:24:00,
2013-02-15 22:29:00,43.0,38.5,29.86,SSW,192,0.0,1.0,84,0.00,,OVC090,0.00,VWS V14.01,2013-02-16 03:29:00,
2013-02-15 22:34:00,43.2,38.7,29.86,SSW,192,0.0,0.0,84,0.00,,OVC090,0.00,VWS V14.01,2013-02-16 03:34:00,
2013-02-15 22:39:00,43.3,38.5,29.86,South,191,0.0,0.0,83,0.00,,OVC090,0.00,VWS V14.01,2013-02-16 03:39:00,
2013-02-15 22:44:00,43.4,38.6,29.87,South,191,0.0,0.0,83,0.00,,OVC090,0.00,VWS V14.01,2013-02-16 03:44:00,
2013-02-15 22:49:00,43.4,38.6,29.87,South,191,0.0,0.0,83,0.00,,OVC090,0.00,VWS V14.01,2013-02-16 03:49:00,
2013-02-15 22:54:00,43.4,38.6,29.87,SSW,192,0.0,0.0,83,0.00,,OVC090,0.00,VWS V14.01,2013-02-16 03:54:00,
2013-02-15 22:59:00,43.5,39.0,29.87,South,191,0.0,0.0,84,0.00,,OVC090,0.00,VWS V14.01,2013-02-16 03:59:00,
2013-02-15 23:04:00,43.3,38.5,29.87,SSW,192,0.0,1.0,83,0.00,,OVC075,0.00,VWS V14.01,2013-02-16 04:04:00,
2013-02-15 23:09:00,43.1,38.3,29.87,SSW,192,0.0,1.0,83,0.00,,OVC075,0.00,VWS V14.01,2013-02-16 04:09:00,
2013-02-15 23:14:00,43.1,38.0,29.87,South,191,0.0,2.0,82,0.00,,OVC075,0.00,VWS V14.01,2013-02-16 04:14:00,
2013-02-15 23:19:00,43.1,38.0,29.87,South,191,0.0,3.0,82,0.00,,OVC075,0.00,VWS V14.01,2013-02-16 04:19:00,
2013-02-15 23:24:00,43.1,37.5,29.87,South,189,0.0,3.0,80,0.00,,OVC075,0.00,VWS V14.01,2013-02-16 04:24:00,
2013-02-15 23:29:00,43.2,36.8,29.87,NNE,30,0.0,3.0,78,0.00,,OVC075,0.00,VWS V14.01,2013-02-16 04:29:00,
2013-02-15 23:34:00,43.2,36.5,29.86,NNE,22,4.0,6.0,77,0.00,,OVC075,0.00,VWS V14.01,2013-02-16 04:34:00,
2013-02-15 23:39:00,43.3,35.6,29.87,NNE,32,5.0,6.0,74,0.00,,OVC075,0.00,VWS V14.01,2013-02-16 04:39:00,
2013-02-15 23:44:00,43.5,34.4,29.86,North,10,4.0,9.0,71,0.00,,OVC075,0.00,VWS V14.01,2013-02-16 04:44:00,
2013-02-15 23:49:00,43.5,33.3,29.86,NNE,12,10.0,15.0,67,0.00,,OVC075,0.00,VWS V14.01,2013-02-16 04:49:00,
2013-02-15 23:54:00,43.4,33.6,29.86,NNE,22,5.0,15.0,68,0.00,,OVC075,0.00,VWS V14.01,2013-02-16 04:54:00,
2013-02-15 23:59:00,43.2,33.8,29.86,NNE,21,7.0,15.0,69,0.00,,OVC075,0.00,VWS V14.01,2013-02-16 04:59:00,